sensor_id;sensor_type;location;lat;lon;timestamp;temperature;humidity
46784;DHT22;32544;52.832;13.816;2023-05-09T00:00:52;23.70;41.50
46784;DHT22;32544;52.832;13.816;2023-05-09T00:01:52;23.70;41.40
46784;DHT22;32544;52.832;13.816;2023-05-09T00:02:53;23.70;41.40
46784;DHT22;32544;52.832;13.816;2023-05-09T00:03:53;23.70;41.40
46784;DHT22;32544;52.832;13.816;2023-05-09T00:04:55;23.70;41.40
46784;DHT22;32544;52.832;13.816;2023-05-09T00:05:56;23.70;41.50
46784;DHT22;32544;52.832;13.816;2023-05-09T00:06:56;23.70;41.40
46784;DHT22;32544;52.832;13.816;2023-05-09T00:07:57;23.70;41.50
46784;DHT22;32544;52.832;13.816;2023-05-09T00:08:57;23.70;41.50
46784;DHT22;32544;52.832;13.816;2023-05-09T00:09:58;23.70;41.50
46784;DHT22;32544;52.832;13.816;2023-05-09T00:11:00;23.70;41.50
46784;DHT22;32544;52.832;13.816;2023-05-09T00:12:00;23.70;41.50
46784;DHT22;32544;52.832;13.816;2023-05-09T00:13:02;23.70;41.50
46784;DHT22;32544;52.832;13.816;2023-05-09T00:14:02;23.70;41.50
46784;DHT22;32544;52.832;13.816;2023-05-09T00:15:03;23.70;41.50
46784;DHT22;32544;52.832;13.816;2023-05-09T00:16:07;23.70;41.50
46784;DHT22;32544;52.832;13.816;2023-05-09T00:17:08;23.60;41.40
46784;DHT22;32544;52.832;13.816;2023-05-09T00:18:09;23.70;41.50
46784;DHT22;32544;52.832;13.816;2023-05-09T00:19:10;23.70;41.50
46784;DHT22;32544;52.832;13.816;2023-05-09T00:20:12;23.70;41.50
46784;DHT22;32544;52.832;13.816;2023-05-09T00:21:12;23.70;41.40
46784;DHT22;32544;52.832;13.816;2023-05-09T00:22:13;23.70;41.40
46784;DHT22;32544;52.832;13.816;2023-05-09T00:23:13;23.70;41.30
46784;DHT22;32544;52.832;13.816;2023-05-09T00:24:14;23.70;41.40
46784;DHT22;32544;52.832;13.816;2023-05-09T00:25:15;23.70;41.30
46784;DHT22;32544;52.832;13.816;2023-05-09T00:26:15;23.70;41.30
46784;DHT22;32544;52.832;13.816;2023-05-09T00:27:17;23.60;41.30
46784;DHT22;32544;52.832;13.816;2023-05-09T00:28:18;23.70;41.40
46784;DHT22;32544;52.832;13.816;2023-05-09T00:29:19;23.70;41.40
46784;DHT22;32544;52.832;13.816;2023-05-09T00:30:19;23.60;41.40
46784;DHT22;32544;52.832;13.816;2023-05-09T00:31:20;23.60;41.40
46784;DHT22;32544;52.832;13.816;2023-05-09T00:32:20;23.60;41.40
46784;DHT22;32544;52.832;13.816;2023-05-09T00:33:21;23.60;41.40
46784;DHT22;32544;52.832;13.816;2023-05-09T00:34:40;23.60;41.40
46784;DHT22;32544;52.832;13.816;2023-05-09T00:35:41;23.60;41.40
46784;DHT22;32544;52.832;13.816;2023-05-09T00:36:41;23.60;41.50
46784;DHT22;32544;52.832;13.816;2023-05-09T00:37:42;23.60;41.40
46784;DHT22;32544;52.832;13.816;2023-05-09T00:38:43;23.60;41.50
46784;DHT22;32544;52.832;13.816;2023-05-09T00:39:44;23.60;41.50
46784;DHT22;32544;52.832;13.816;2023-05-09T00:40:45;23.60;41.50
46784;DHT22;32544;52.832;13.816;2023-05-09T00:41:45;23.60;41.50
46784;DHT22;32544;52.832;13.816;2023-05-09T00:42:46;23.60;41.50
46784;DHT22;32544;52.832;13.816;2023-05-09T00:43:46;23.60;41.50
46784;DHT22;32544;52.832;13.816;2023-05-09T00:44:47;23.60;41.50
46784;DHT22;32544;52.832;13.816;2023-05-09T00:45:48;23.60;41.50
46784;DHT22;32544;52.832;13.816;2023-05-09T00:46:49;23.60;41.50
46784;DHT22;32544;52.832;13.816;2023-05-09T00:47:49;23.60;41.50
46784;DHT22;32544;52.832;13.816;2023-05-09T00:48:50;23.60;41.50
46784;DHT22;32544;52.832;13.816;2023-05-09T00:49:51;23.60;41.50
46784;DHT22;32544;52.832;13.816;2023-05-09T00:50:52;23.60;41.50
46784;DHT22;32544;52.832;13.816;2023-05-09T00:51:53;23.60;41.50
46784;DHT22;32544;52.832;13.816;2023-05-09T00:52:54;23.60;41.50
46784;DHT22;32544;52.832;13.816;2023-05-09T00:53:55;23.60;41.50
46784;DHT22;32544;52.832;13.816;2023-05-09T00:54:55;23.60;41.50
46784;DHT22;32544;52.832;13.816;2023-05-09T00:55:56;23.60;41.50
46784;DHT22;32544;52.832;13.816;2023-05-09T00:56:57;23.60;41.50
46784;DHT22;32544;52.832;13.816;2023-05-09T00:57:58;23.60;41.50
46784;DHT22;32544;52.832;13.816;2023-05-09T00:58:58;23.60;41.50
46784;DHT22;32544;52.832;13.816;2023-05-09T00:59:59;23.60;41.50
46784;DHT22;32544;52.832;13.816;2023-05-09T01:01:00;23.60;41.50
46784;DHT22;32544;52.832;13.816;2023-05-09T01:02:02;23.60;41.50
46784;DHT22;32544;52.832;13.816;2023-05-09T01:03:03;23.60;41.60
46784;DHT22;32544;52.832;13.816;2023-05-09T01:04:04;23.60;41.50
46784;DHT22;32544;52.832;13.816;2023-05-09T01:05:05;23.60;41.60
46784;DHT22;32544;52.832;13.816;2023-05-09T01:06:09;23.60;41.60
46784;DHT22;32544;52.832;13.816;2023-05-09T01:07:24;23.60;41.50
46784;DHT22;32544;52.832;13.816;2023-05-09T01:11:09;23.60;41.50
46784;DHT22;32544;52.832;13.816;2023-05-09T01:13:37;23.60;41.60
46784;DHT22;32544;52.832;13.816;2023-05-09T01:14:45;23.60;41.60
46784;DHT22;32544;52.832;13.816;2023-05-09T01:15:50;23.60;41.50
46784;DHT22;32544;52.832;13.816;2023-05-09T01:18:31;23.50;41.60
46784;DHT22;32544;52.832;13.816;2023-05-09T01:20:42;23.50;41.60
46784;DHT22;32544;52.832;13.816;2023-05-09T01:21:46;23.50;41.60
46784;DHT22;32544;52.832;13.816;2023-05-09T01:22:51;23.50;41.60
46784;DHT22;32544;52.832;13.816;2023-05-09T01:29:47;23.50;41.60
46784;DHT22;32544;52.832;13.816;2023-05-09T01:30:50;23.50;41.70
46784;DHT22;32544;52.832;13.816;2023-05-09T01:31:52;23.50;41.60
46784;DHT22;32544;52.832;13.816;2023-05-09T01:32:56;23.50;41.60
46784;DHT22;32544;52.832;13.816;2023-05-09T01:33:59;23.50;41.60
46784;DHT22;32544;52.832;13.816;2023-05-09T01:35:02;23.50;41.60
46784;DHT22;32544;52.832;13.816;2023-05-09T01:36:06;23.50;41.60
46784;DHT22;32544;52.832;13.816;2023-05-09T01:37:07;23.50;41.60
46784;DHT22;32544;52.832;13.816;2023-05-09T01:38:10;23.50;41.60
46784;DHT22;32544;52.832;13.816;2023-05-09T01:39:12;23.50;41.60
46784;DHT22;32544;52.832;13.816;2023-05-09T01:40:14;23.50;41.60
46784;DHT22;32544;52.832;13.816;2023-05-09T01:41:16;23.50;41.60
46784;DHT22;32544;52.832;13.816;2023-05-09T01:42:17;23.50;41.60
46784;DHT22;32544;52.832;13.816;2023-05-09T01:43:19;23.50;41.60
46784;DHT22;32544;52.832;13.816;2023-05-09T01:44:21;23.50;41.60
46784;DHT22;32544;52.832;13.816;2023-05-09T01:45:23;23.50;41.60
46784;DHT22;32544;52.832;13.816;2023-05-09T01:46:24;23.50;41.60
46784;DHT22;32544;52.832;13.816;2023-05-09T01:47:25;23.50;41.60
46784;DHT22;32544;52.832;13.816;2023-05-09T01:48:25;23.50;41.60
46784;DHT22;32544;52.832;13.816;2023-05-09T01:49:28;23.50;41.60
46784;DHT22;32544;52.832;13.816;2023-05-09T01:50:30;23.50;41.60
46784;DHT22;32544;52.832;13.816;2023-05-09T01:51:31;23.50;41.70
46784;DHT22;32544;52.832;13.816;2023-05-09T01:52:34;23.50;41.60
46784;DHT22;32544;52.832;13.816;2023-05-09T01:53:35;23.50;41.60
46784;DHT22;32544;52.832;13.816;2023-05-09T01:54:36;23.50;41.60
46784;DHT22;32544;52.832;13.816;2023-05-09T01:55:38;23.50;41.60
46784;DHT22;32544;52.832;13.816;2023-05-09T01:56:39;23.50;41.60
46784;DHT22;32544;52.832;13.816;2023-05-09T01:57:42;23.50;41.60
46784;DHT22;32544;52.832;13.816;2023-05-09T01:58:43;23.50;41.60
46784;DHT22;32544;52.832;13.816;2023-05-09T01:59:47;23.50;41.60
46784;DHT22;32544;52.832;13.816;2023-05-09T02:00:48;23.50;41.60
46784;DHT22;32544;52.832;13.816;2023-05-09T02:01:49;23.50;41.60
46784;DHT22;32544;52.832;13.816;2023-05-09T02:02:51;23.50;41.70
46784;DHT22;32544;52.832;13.816;2023-05-09T02:03:52;23.50;41.70
46784;DHT22;32544;52.832;13.816;2023-05-09T02:04:56;23.50;41.70
46784;DHT22;32544;52.832;13.816;2023-05-09T02:05:56;23.50;41.70
46784;DHT22;32544;52.832;13.816;2023-05-09T02:06:57;23.50;41.70
46784;DHT22;32544;52.832;13.816;2023-05-09T02:07:58;23.50;41.70
46784;DHT22;32544;52.832;13.816;2023-05-09T02:08:59;23.50;41.70
46784;DHT22;32544;52.832;13.816;2023-05-09T02:10:00;23.50;41.70
46784;DHT22;32544;52.832;13.816;2023-05-09T02:11:01;23.50;41.70
46784;DHT22;32544;52.832;13.816;2023-05-09T02:12:02;23.50;41.70
46784;DHT22;32544;52.832;13.816;2023-05-09T02:13:04;23.50;41.70
46784;DHT22;32544;52.832;13.816;2023-05-09T02:14:05;23.50;41.70
46784;DHT22;32544;52.832;13.816;2023-05-09T02:15:05;23.50;41.70
46784;DHT22;32544;52.832;13.816;2023-05-09T02:16:06;23.50;41.70
46784;DHT22;32544;52.832;13.816;2023-05-09T02:17:08;23.50;41.70
46784;DHT22;32544;52.832;13.816;2023-05-09T02:18:10;23.50;41.70
46784;DHT22;32544;52.832;13.816;2023-05-09T02:19:10;23.50;41.70
46784;DHT22;32544;52.832;13.816;2023-05-09T02:20:11;23.50;42.40
46784;DHT22;32544;52.832;13.816;2023-05-09T02:21:12;23.50;41.80
46784;DHT22;32544;52.832;13.816;2023-05-09T02:22:13;23.50;41.70
46784;DHT22;32544;52.832;13.816;2023-05-09T02:23:14;23.50;41.70
46784;DHT22;32544;52.832;13.816;2023-05-09T02:24:14;23.50;41.80
46784;DHT22;32544;52.832;13.816;2023-05-09T02:25:15;23.50;41.70
46784;DHT22;32544;52.832;13.816;2023-05-09T02:26:16;23.50;41.80
46784;DHT22;32544;52.832;13.816;2023-05-09T02:27:16;23.50;41.80
46784;DHT22;32544;52.832;13.816;2023-05-09T02:28:18;23.50;41.80
46784;DHT22;32544;52.832;13.816;2023-05-09T02:29:20;23.50;41.80
46784;DHT22;32544;52.832;13.816;2023-05-09T02:30:22;23.50;41.80
46784;DHT22;32544;52.832;13.816;2023-05-09T02:31:24;23.50;41.80
46784;DHT22;32544;52.832;13.816;2023-05-09T02:32:27;23.50;41.80
46784;DHT22;32544;52.832;13.816;2023-05-09T02:33:30;23.50;41.80
46784;DHT22;32544;52.832;13.816;2023-05-09T02:34:33;23.50;41.80
46784;DHT22;32544;52.832;13.816;2023-05-09T02:35:34;23.50;41.80
46784;DHT22;32544;52.832;13.816;2023-05-09T02:36:35;23.50;41.80
46784;DHT22;32544;52.832;13.816;2023-05-09T02:37:36;23.50;41.80
46784;DHT22;32544;52.832;13.816;2023-05-09T02:38:36;23.50;41.80
46784;DHT22;32544;52.832;13.816;2023-05-09T02:39:37;23.50;41.80
46784;DHT22;32544;52.832;13.816;2023-05-09T02:40:37;23.50;41.80
46784;DHT22;32544;52.832;13.816;2023-05-09T02:41:38;23.50;41.80
46784;DHT22;32544;52.832;13.816;2023-05-09T02:42:38;23.50;41.80
46784;DHT22;32544;52.832;13.816;2023-05-09T02:43:39;23.50;41.80
46784;DHT22;32544;52.832;13.816;2023-05-09T02:44:40;23.50;41.80
46784;DHT22;32544;52.832;13.816;2023-05-09T02:45:41;23.50;41.80
46784;DHT22;32544;52.832;13.816;2023-05-09T02:46:43;23.50;41.80
46784;DHT22;32544;52.832;13.816;2023-05-09T02:47:43;23.50;41.80
46784;DHT22;32544;52.832;13.816;2023-05-09T02:48:44;23.50;41.80
46784;DHT22;32544;52.832;13.816;2023-05-09T02:49:44;23.50;41.80
46784;DHT22;32544;52.832;13.816;2023-05-09T02:50:45;23.50;41.80
46784;DHT22;32544;52.832;13.816;2023-05-09T02:51:46;23.50;41.80
46784;DHT22;32544;52.832;13.816;2023-05-09T02:52:46;23.50;41.80
46784;DHT22;32544;52.832;13.816;2023-05-09T02:53:47;23.50;41.80
46784;DHT22;32544;52.832;13.816;2023-05-09T02:54:48;23.50;41.80
46784;DHT22;32544;52.832;13.816;2023-05-09T02:55:48;23.50;41.80
46784;DHT22;32544;52.832;13.816;2023-05-09T02:56:49;23.50;41.80
46784;DHT22;32544;52.832;13.816;2023-05-09T02:57:50;23.50;41.80
46784;DHT22;32544;52.832;13.816;2023-05-09T02:58:50;23.50;41.80
46784;DHT22;32544;52.832;13.816;2023-05-09T02:59:52;23.50;41.80
46784;DHT22;32544;52.832;13.816;2023-05-09T03:00:52;23.50;41.80
46784;DHT22;32544;52.832;13.816;2023-05-09T03:01:53;23.50;41.80
46784;DHT22;32544;52.832;13.816;2023-05-09T03:02:55;23.50;41.80
46784;DHT22;32544;52.832;13.816;2023-05-09T03:03:55;23.50;41.80
46784;DHT22;32544;52.832;13.816;2023-05-09T03:04:56;23.50;41.80
46784;DHT22;32544;52.832;13.816;2023-05-09T03:05:56;23.50;41.80
46784;DHT22;32544;52.832;13.816;2023-05-09T03:06:57;23.50;41.80
46784;DHT22;32544;52.832;13.816;2023-05-09T03:08:02;23.50;41.80
46784;DHT22;32544;52.832;13.816;2023-05-09T03:09:03;23.50;41.80
46784;DHT22;32544;52.832;13.816;2023-05-09T03:10:05;23.50;41.80
46784;DHT22;32544;52.832;13.816;2023-05-09T03:11:05;23.50;41.80
46784;DHT22;32544;52.832;13.816;2023-05-09T03:12:06;23.50;41.80
46784;DHT22;32544;52.832;13.816;2023-05-09T03:13:07;23.50;41.80
46784;DHT22;32544;52.832;13.816;2023-05-09T03:14:08;23.50;41.80
46784;DHT22;32544;52.832;13.816;2023-05-09T03:15:10;23.50;41.80
46784;DHT22;32544;52.832;13.816;2023-05-09T03:16:13;23.50;41.80
46784;DHT22;32544;52.832;13.816;2023-05-09T03:17:15;23.50;41.80
46784;DHT22;32544;52.832;13.816;2023-05-09T03:18:20;23.50;41.80
46784;DHT22;32544;52.832;13.816;2023-05-09T03:19:20;23.50;41.80
46784;DHT22;32544;52.832;13.816;2023-05-09T03:20:21;23.50;41.80
46784;DHT22;32544;52.832;13.816;2023-05-09T03:21:22;23.50;41.80
46784;DHT22;32544;52.832;13.816;2023-05-09T03:22:22;23.50;41.70
46784;DHT22;32544;52.832;13.816;2023-05-09T03:23:29;23.50;41.70
46784;DHT22;32544;52.832;13.816;2023-05-09T03:24:29;23.50;41.80
46784;DHT22;32544;52.832;13.816;2023-05-09T03:25:30;23.50;41.70
46784;DHT22;32544;52.832;13.816;2023-05-09T03:26:30;23.60;41.80
46784;DHT22;32544;52.832;13.816;2023-05-09T03:27:32;23.50;41.80
46784;DHT22;32544;52.832;13.816;2023-05-09T03:28:32;23.50;41.70
46784;DHT22;32544;52.832;13.816;2023-05-09T03:29:36;23.50;41.80
46784;DHT22;32544;52.832;13.816;2023-05-09T03:30:38;23.50;41.80
46784;DHT22;32544;52.832;13.816;2023-05-09T03:31:42;23.50;41.80
46784;DHT22;32544;52.832;13.816;2023-05-09T03:32:43;23.50;41.80
46784;DHT22;32544;52.832;13.816;2023-05-09T03:33:43;23.50;41.80
46784;DHT22;32544;52.832;13.816;2023-05-09T03:34:44;23.50;41.80
46784;DHT22;32544;52.832;13.816;2023-05-09T03:35:45;23.50;41.80
46784;DHT22;32544;52.832;13.816;2023-05-09T03:36:46;23.50;41.80
46784;DHT22;32544;52.832;13.816;2023-05-09T03:37:48;23.50;41.80
46784;DHT22;32544;52.832;13.816;2023-05-09T03:38:49;23.50;41.80
46784;DHT22;32544;52.832;13.816;2023-05-09T03:39:50;23.50;41.80
46784;DHT22;32544;52.832;13.816;2023-05-09T03:40:52;23.50;41.80
46784;DHT22;32544;52.832;13.816;2023-05-09T03:41:53;23.50;41.80
46784;DHT22;32544;52.832;13.816;2023-05-09T03:42:54;23.50;41.80
46784;DHT22;32544;52.832;13.816;2023-05-09T03:43:54;23.50;41.80
46784;DHT22;32544;52.832;13.816;2023-05-09T03:44:55;23.50;41.80
46784;DHT22;32544;52.832;13.816;2023-05-09T03:45:56;23.50;41.70
46784;DHT22;32544;52.832;13.816;2023-05-09T03:46:57;23.50;41.70
46784;DHT22;32544;52.832;13.816;2023-05-09T03:47:58;23.50;41.70
46784;DHT22;32544;52.832;13.816;2023-05-09T03:48:59;23.50;41.70
46784;DHT22;32544;52.832;13.816;2023-05-09T03:50:00;23.50;41.70
46784;DHT22;32544;52.832;13.816;2023-05-09T03:51:00;23.50;41.60
46784;DHT22;32544;52.832;13.816;2023-05-09T03:52:04;23.50;41.60
46784;DHT22;32544;52.832;13.816;2023-05-09T03:53:04;23.50;41.60
46784;DHT22;32544;52.832;13.816;2023-05-09T03:54:06;23.50;41.60
46784;DHT22;32544;52.832;13.816;2023-05-09T03:55:08;23.50;41.70
46784;DHT22;32544;52.832;13.816;2023-05-09T03:56:10;23.50;41.60
46784;DHT22;32544;52.832;13.816;2023-05-09T03:57:18;23.50;41.60
46784;DHT22;32544;52.832;13.816;2023-05-09T03:58:21;23.50;41.60
46784;DHT22;32544;52.832;13.816;2023-05-09T03:59:21;23.50;41.70
46784;DHT22;32544;52.832;13.816;2023-05-09T04:00:22;23.50;41.60
46784;DHT22;32544;52.832;13.816;2023-05-09T04:01:33;23.50;41.60
46784;DHT22;32544;52.832;13.816;2023-05-09T04:02:36;23.50;41.60
46784;DHT22;32544;52.832;13.816;2023-05-09T04:03:37;23.50;41.70
46784;DHT22;32544;52.832;13.816;2023-05-09T04:04:38;23.50;41.70
46784;DHT22;32544;52.832;13.816;2023-05-09T04:05:39;23.50;41.70
46784;DHT22;32544;52.832;13.816;2023-05-09T04:06:42;23.50;41.70
46784;DHT22;32544;52.832;13.816;2023-05-09T04:07:44;23.50;41.80
46784;DHT22;32544;52.832;13.816;2023-05-09T04:08:45;23.50;41.70
46784;DHT22;32544;52.832;13.816;2023-05-09T04:09:45;23.50;41.80
46784;DHT22;32544;52.832;13.816;2023-05-09T04:10:47;23.50;41.80
46784;DHT22;32544;52.832;13.816;2023-05-09T04:11:48;23.50;41.80
46784;DHT22;32544;52.832;13.816;2023-05-09T04:12:49;23.50;41.80
46784;DHT22;32544;52.832;13.816;2023-05-09T04:13:51;23.50;41.80
46784;DHT22;32544;52.832;13.816;2023-05-09T04:14:59;23.50;41.80
46784;DHT22;32544;52.832;13.816;2023-05-09T04:16:00;23.50;41.80
46784;DHT22;32544;52.832;13.816;2023-05-09T04:17:03;23.50;41.80
46784;DHT22;32544;52.832;13.816;2023-05-09T04:18:04;23.50;41.80
46784;DHT22;32544;52.832;13.816;2023-05-09T04:19:05;23.50;41.80
46784;DHT22;32544;52.832;13.816;2023-05-09T04:20:07;23.50;41.90
46784;DHT22;32544;52.832;13.816;2023-05-09T04:21:07;23.50;41.80
46784;DHT22;32544;52.832;13.816;2023-05-09T04:22:08;23.50;41.80
46784;DHT22;32544;52.832;13.816;2023-05-09T04:23:09;23.50;41.80
46784;DHT22;32544;52.832;13.816;2023-05-09T04:24:10;23.50;41.80
46784;DHT22;32544;52.832;13.816;2023-05-09T04:25:16;23.50;41.80
46784;DHT22;32544;52.832;13.816;2023-05-09T04:26:17;23.50;41.80
46784;DHT22;32544;52.832;13.816;2023-05-09T04:27:21;23.50;41.80
46784;DHT22;32544;52.832;13.816;2023-05-09T04:28:24;23.50;41.80
46784;DHT22;32544;52.832;13.816;2023-05-09T04:29:24;23.50;41.90
46784;DHT22;32544;52.832;13.816;2023-05-09T04:30:28;23.40;41.80
46784;DHT22;32544;52.832;13.816;2023-05-09T04:31:29;23.50;41.90
46784;DHT22;32544;52.832;13.816;2023-05-09T04:32:30;23.50;41.90
46784;DHT22;32544;52.832;13.816;2023-05-09T04:33:31;23.40;41.80
46784;DHT22;32544;52.832;13.816;2023-05-09T04:34:35;23.50;41.90
46784;DHT22;32544;52.832;13.816;2023-05-09T04:35:41;23.50;41.90
46784;DHT22;32544;52.832;13.816;2023-05-09T04:36:41;23.50;42.60
46784;DHT22;32544;52.832;13.816;2023-05-09T04:37:42;23.40;41.90
46784;DHT22;32544;52.832;13.816;2023-05-09T04:38:42;23.50;41.90
46784;DHT22;32544;52.832;13.816;2023-05-09T04:39:47;23.40;41.90
46784;DHT22;32544;52.832;13.816;2023-05-09T04:40:53;23.40;41.90
46784;DHT22;32544;52.832;13.816;2023-05-09T04:41:54;23.40;41.90
46784;DHT22;32544;52.832;13.816;2023-05-09T04:42:55;23.40;41.90
46784;DHT22;32544;52.832;13.816;2023-05-09T04:43:59;23.40;42.00
46784;DHT22;32544;52.832;13.816;2023-05-09T04:45:00;23.40;42.00
46784;DHT22;32544;52.832;13.816;2023-05-09T04:46:02;23.40;42.00
46784;DHT22;32544;52.832;13.816;2023-05-09T04:47:03;23.40;42.00
46784;DHT22;32544;52.832;13.816;2023-05-09T04:48:03;23.40;42.00
46784;DHT22;32544;52.832;13.816;2023-05-09T04:49:04;23.40;42.00
46784;DHT22;32544;52.832;13.816;2023-05-09T04:50:05;23.40;42.00
46784;DHT22;32544;52.832;13.816;2023-05-09T04:51:06;23.40;42.00
46784;DHT22;32544;52.832;13.816;2023-05-09T04:52:07;23.40;42.00
46784;DHT22;32544;52.832;13.816;2023-05-09T04:53:08;23.40;42.00
46784;DHT22;32544;52.832;13.816;2023-05-09T04:54:09;23.40;42.00
46784;DHT22;32544;52.832;13.816;2023-05-09T04:55:11;23.40;42.00
46784;DHT22;32544;52.832;13.816;2023-05-09T04:56:16;23.40;42.00
46784;DHT22;32544;52.832;13.816;2023-05-09T04:57:19;23.40;42.00
46784;DHT22;32544;52.832;13.816;2023-05-09T04:58:25;23.40;42.00
46784;DHT22;32544;52.832;13.816;2023-05-09T04:59:27;23.40;42.00
46784;DHT22;32544;52.832;13.816;2023-05-09T05:00:27;23.40;42.00
46784;DHT22;32544;52.832;13.816;2023-05-09T05:01:29;23.40;42.00
46784;DHT22;32544;52.832;13.816;2023-05-09T05:02:30;23.40;42.00
46784;DHT22;32544;52.832;13.816;2023-05-09T05:03:31;23.40;42.00
46784;DHT22;32544;52.832;13.816;2023-05-09T05:04:32;23.40;42.00
46784;DHT22;32544;52.832;13.816;2023-05-09T05:05:33;23.40;42.00
46784;DHT22;32544;52.832;13.816;2023-05-09T05:06:34;23.40;42.00
46784;DHT22;32544;52.832;13.816;2023-05-09T05:07:35;23.40;42.00
46784;DHT22;32544;52.832;13.816;2023-05-09T05:08:36;23.40;42.00
46784;DHT22;32544;52.832;13.816;2023-05-09T05:09:36;23.40;42.00
46784;DHT22;32544;52.832;13.816;2023-05-09T05:10:37;23.40;42.00
46784;DHT22;32544;52.832;13.816;2023-05-09T05:11:41;23.40;42.00
46784;DHT22;32544;52.832;13.816;2023-05-09T05:12:42;23.40;42.00
46784;DHT22;32544;52.832;13.816;2023-05-09T05:13:45;23.40;42.00
46784;DHT22;32544;52.832;13.816;2023-05-09T05:14:45;23.40;42.00
46784;DHT22;32544;52.832;13.816;2023-05-09T05:15:51;23.40;42.60
46784;DHT22;32544;52.832;13.816;2023-05-09T05:16:54;23.40;42.00
46784;DHT22;32544;52.832;13.816;2023-05-09T05:17:57;23.40;42.00
46784;DHT22;32544;52.832;13.816;2023-05-09T05:19:02;23.40;41.90
46784;DHT22;32544;52.832;13.816;2023-05-09T05:20:05;23.40;41.90
46784;DHT22;32544;52.832;13.816;2023-05-09T05:21:06;23.40;41.90
46784;DHT22;32544;52.832;13.816;2023-05-09T05:22:08;23.50;42.00
46784;DHT22;32544;52.832;13.816;2023-05-09T05:23:10;23.40;41.90
46784;DHT22;32544;52.832;13.816;2023-05-09T05:24:11;23.40;41.90
46784;DHT22;32544;52.832;13.816;2023-05-09T05:25:12;23.40;42.00
46784;DHT22;32544;52.832;13.816;2023-05-09T05:26:14;23.40;41.90
46784;DHT22;32544;52.832;13.816;2023-05-09T05:27:14;23.40;42.00
46784;DHT22;32544;52.832;13.816;2023-05-09T05:28:15;23.40;42.00
46784;DHT22;32544;52.832;13.816;2023-05-09T05:29:16;23.40;42.00
46784;DHT22;32544;52.832;13.816;2023-05-09T05:30:18;23.40;42.00
46784;DHT22;32544;52.832;13.816;2023-05-09T05:31:20;23.40;42.00
46784;DHT22;32544;52.832;13.816;2023-05-09T05:32:21;23.40;41.90
46784;DHT22;32544;52.832;13.816;2023-05-09T05:33:22;23.40;42.00
46784;DHT22;32544;52.832;13.816;2023-05-09T05:34:22;23.40;42.00
46784;DHT22;32544;52.832;13.816;2023-05-09T05:35:23;23.40;42.00
46784;DHT22;32544;52.832;13.816;2023-05-09T05:36:25;23.40;42.00
46784;DHT22;32544;52.832;13.816;2023-05-09T05:37:25;23.40;42.00
46784;DHT22;32544;52.832;13.816;2023-05-09T05:38:26;23.40;42.00
46784;DHT22;32544;52.832;13.816;2023-05-09T05:39:29;23.40;42.00
46784;DHT22;32544;52.832;13.816;2023-05-09T05:40:30;23.40;42.00
46784;DHT22;32544;52.832;13.816;2023-05-09T05:41:33;23.40;42.00
46784;DHT22;32544;52.832;13.816;2023-05-09T05:42:35;23.40;42.00
46784;DHT22;32544;52.832;13.816;2023-05-09T05:43:35;23.40;42.00
46784;DHT22;32544;52.832;13.816;2023-05-09T05:44:36;23.40;42.00
46784;DHT22;32544;52.832;13.816;2023-05-09T05:45:37;23.40;41.90
46784;DHT22;32544;52.832;13.816;2023-05-09T05:46:40;23.40;42.00
46784;DHT22;32544;52.832;13.816;2023-05-09T05:47:40;23.40;42.00
46784;DHT22;32544;52.832;13.816;2023-05-09T05:48:41;23.40;41.90
46784;DHT22;32544;52.832;13.816;2023-05-09T05:49:41;23.40;41.90
46784;DHT22;32544;52.832;13.816;2023-05-09T05:50:43;23.40;41.90
46784;DHT22;32544;52.832;13.816;2023-05-09T05:51:44;23.40;41.90
46784;DHT22;32544;52.832;13.816;2023-05-09T05:52:45;23.40;42.00
46784;DHT22;32544;52.832;13.816;2023-05-09T05:53:48;23.40;41.90
46784;DHT22;32544;52.832;13.816;2023-05-09T05:54:49;23.40;42.00
46784;DHT22;32544;52.832;13.816;2023-05-09T05:55:49;23.40;42.00
46784;DHT22;32544;52.832;13.816;2023-05-09T05:56:50;23.40;41.90
46784;DHT22;32544;52.832;13.816;2023-05-09T05:57:51;23.40;42.00
46784;DHT22;32544;52.832;13.816;2023-05-09T05:58:51;23.40;41.90
46784;DHT22;32544;52.832;13.816;2023-05-09T05:59:52;23.40;41.90
46784;DHT22;32544;52.832;13.816;2023-05-09T06:00:53;23.40;41.90
46784;DHT22;32544;52.832;13.816;2023-05-09T06:01:53;23.40;41.90
46784;DHT22;32544;52.832;13.816;2023-05-09T06:02:54;23.40;41.90
46784;DHT22;32544;52.832;13.816;2023-05-09T06:04:15;23.40;41.90
46784;DHT22;32544;52.832;13.816;2023-05-09T06:05:16;23.40;41.90
46784;DHT22;32544;52.832;13.816;2023-05-09T06:06:16;23.40;41.90
46784;DHT22;32544;52.832;13.816;2023-05-09T06:07:17;23.40;41.90
46784;DHT22;32544;52.832;13.816;2023-05-09T06:08:19;23.40;41.90
46784;DHT22;32544;52.832;13.816;2023-05-09T06:09:19;23.40;42.00
46784;DHT22;32544;52.832;13.816;2023-05-09T06:10:20;23.40;41.90
46784;DHT22;32544;52.832;13.816;2023-05-09T06:11:20;23.40;41.90
46784;DHT22;32544;52.832;13.816;2023-05-09T06:12:21;23.40;41.90
46784;DHT22;32544;52.832;13.816;2023-05-09T06:13:22;23.40;41.90
46784;DHT22;32544;52.832;13.816;2023-05-09T06:14:26;23.40;41.90
46784;DHT22;32544;52.832;13.816;2023-05-09T06:15:27;23.40;41.90
46784;DHT22;32544;52.832;13.816;2023-05-09T06:16:28;23.40;41.90
46784;DHT22;32544;52.832;13.816;2023-05-09T06:17:29;23.40;41.90
46784;DHT22;32544;52.832;13.816;2023-05-09T06:18:29;23.40;41.90
46784;DHT22;32544;52.832;13.816;2023-05-09T06:19:30;23.40;41.90
46784;DHT22;32544;52.832;13.816;2023-05-09T06:20:30;23.40;41.90
46784;DHT22;32544;52.832;13.816;2023-05-09T06:21:31;23.40;41.90
46784;DHT22;32544;52.832;13.816;2023-05-09T06:22:33;23.40;41.90
46784;DHT22;32544;52.832;13.816;2023-05-09T06:23:34;23.40;41.90
46784;DHT22;32544;52.832;13.816;2023-05-09T06:24:38;23.40;42.00
46784;DHT22;32544;52.832;13.816;2023-05-09T06:25:39;23.40;42.00
46784;DHT22;32544;52.832;13.816;2023-05-09T06:26:40;23.40;42.00
46784;DHT22;32544;52.832;13.816;2023-05-09T06:27:41;23.40;42.00
46784;DHT22;32544;52.832;13.816;2023-05-09T06:28:41;23.40;42.00
46784;DHT22;32544;52.832;13.816;2023-05-09T06:29:42;23.40;42.00
46784;DHT22;32544;52.832;13.816;2023-05-09T06:30:42;23.40;41.90
46784;DHT22;32544;52.832;13.816;2023-05-09T06:31:43;23.40;41.80
46784;DHT22;32544;52.832;13.816;2023-05-09T06:32:43;23.40;41.80
46784;DHT22;32544;52.832;13.816;2023-05-09T06:33:44;23.40;41.90
46784;DHT22;32544;52.832;13.816;2023-05-09T06:34:45;23.40;41.80
46784;DHT22;32544;52.832;13.816;2023-05-09T06:35:45;23.40;41.80